createdAt,value
2018-05-26T00:00:01.710Z,13.37
2018-05-26T00:02:05.206Z,14.00
2018-05-26T00:04:08.730Z,15.80
2018-05-26T00:06:12.278Z,15.60
2018-05-26T00:08:15.801Z,15.93
2018-05-26T00:10:19.330Z,15.30
2018-05-26T00:12:22.869Z,13.50
2018-05-26T00:14:26.407Z,14.37
2018-05-26T00:16:29.893Z,15.40
2018-05-26T00:18:33.415Z,14.73
2018-05-26T00:20:42.340Z,13.97
2018-05-26T00:22:51.268Z,16.03
2018-05-26T00:24:54.800Z,16.70
2018-05-26T00:26:58.275Z,16.13
2018-05-26T00:29:01.840Z,15.63
2018-05-26T00:31:05.358Z,17.27
2018-05-26T00:33:08.857Z,15.70
2018-05-26T00:35:12.397Z,15.73
2018-05-26T00:37:15.945Z,14.37
2018-05-26T00:39:19.461Z,16.30
2018-05-26T00:41:23.002Z,15.10
2018-05-26T00:43:26.548Z,15.33
2018-05-26T00:45:30.040Z,17.43
2018-05-26T00:47:33.601Z,16.10
2018-05-26T00:49:37.128Z,16.30
2018-05-26T00:51:40.649Z,17.77
2018-05-26T00:53:44.187Z,17.30
2018-05-26T00:55:47.672Z,15.87
2018-05-26T00:57:51.233Z,16.07
2018-05-26T00:59:54.717Z,15.40
2018-05-26T01:01:58.237Z,17.10
2018-05-26T01:04:01.821Z,19.13
2018-05-26T01:06:05.339Z,18.73
2018-05-26T01:08:08.880Z,17.20
2018-05-26T01:10:12.402Z,16.63
2018-05-26T01:12:15.871Z,15.80
2018-05-26T01:14:19.454Z,15.07
2018-05-26T01:16:22.977Z,15.73
2018-05-26T01:18:26.523Z,13.97
2018-05-26T01:20:30.000Z,16.23
2018-05-26T01:22:33.558Z,14.93
2018-05-26T01:24:37.059Z,15.87
2018-05-26T01:26:40.654Z,13.40
2018-05-26T01:28:44.156Z,14.80
2018-05-26T01:30:47.795Z,14.93
2018-05-26T01:32:51.301Z,15.07
2018-05-26T01:34:54.811Z,16.17
2018-05-26T01:36:58.345Z,16.73
2018-05-26T01:39:01.895Z,15.73
2018-05-26T01:41:05.404Z,17.13
2018-05-26T01:43:08.908Z,15.00
2018-05-26T01:45:12.412Z,14.87
2018-05-26T01:47:15.917Z,17.77
2018-05-26T01:49:19.454Z,17.03
2018-05-26T01:51:23.009Z,17.90
2018-05-26T01:53:26.523Z,17.63
2018-05-26T01:55:30.079Z,15.97
2018-05-26T01:57:33.555Z,16.00
2018-05-26T01:59:37.120Z,14.87
2018-05-26T02:01:40.647Z,16.70
2018-05-26T02:03:44.159Z,17.50
2018-05-26T02:05:47.705Z,14.90
2018-05-26T02:07:51.207Z,14.43
2018-05-26T02:09:54.709Z,13.20
2018-05-26T02:11:58.228Z,14.27
2018-05-26T02:14:01.797Z,14.03
2018-05-26T02:16:05.318Z,16.13
2018-05-26T02:18:08.834Z,15.33
2018-05-26T02:20:12.368Z,17.27
2018-05-26T02:22:15.882Z,14.17
2018-05-26T02:24:19.417Z,14.53
2018-05-26T02:26:22.949Z,14.60
2018-05-26T02:28:26.470Z,16.37
2018-05-26T02:30:30.174Z,17.17
2018-05-26T02:32:33.729Z,16.73
2018-05-26T02:34:37.265Z,17.77
2018-05-26T02:36:40.789Z,15.40
2018-05-26T02:38:44.323Z,15.80
2018-05-26T02:40:47.862Z,14.73
2018-05-26T02:42:51.380Z,16.23
2018-05-26T02:44:54.924Z,15.00
2018-05-26T02:46:58.400Z,17.60
2018-05-26T02:49:01.947Z,14.87
2018-05-26T02:51:05.493Z,12.50
2018-05-26T02:53:08.980Z,13.57
2018-05-26T02:55:12.560Z,13.23
2018-05-26T02:57:16.073Z,12.90
2018-05-26T02:59:19.573Z,14.83
2018-05-26T03:01:23.148Z,17.23
2018-05-26T03:03:26.669Z,18.50
2018-05-26T03:05:35.561Z,16.33
2018-05-26T03:07:44.293Z,14.27
2018-05-26T03:09:53.096Z,19.77
2018-05-26T03:12:01.848Z,17.60
2018-05-26T03:14:10.324Z,18.70
2018-05-26T03:16:19.259Z,15.60
2018-05-26T03:18:22.737Z,17.97
2018-05-26T03:20:26.281Z,17.23
2018-05-26T03:22:29.810Z,21.17
2018-05-26T03:24:33.340Z,22.03
2018-05-26T03:26:36.881Z,22.60
2018-05-26T03:28:40.352Z,22.83
2018-05-26T03:30:43.916Z,25.63
2018-05-26T03:32:47.436Z,24.43
2018-05-26T03:34:50.940Z,20.53
2018-05-26T03:36:54.470Z,20.53
2018-05-26T03:38:58.019Z,19.87
2018-05-26T03:41:01.552Z,20.07
2018-05-26T03:43:05.074Z,18.33
2018-05-26T03:45:08.603Z,18.87
2018-05-26T03:47:12.141Z,18.77
2018-05-26T03:49:15.674Z,17.23
2018-05-26T03:51:19.212Z,18.27
2018-05-26T03:53:22.734Z,15.53
2018-05-26T03:55:38.021Z,17.70
2018-05-26T03:57:52.379Z,17.53
2018-05-26T04:00:17.682Z,21.90
2018-05-26T04:02:21.226Z,19.43
2018-05-26T04:04:24.748Z,18.77
2018-05-26T04:06:28.254Z,18.13
2018-05-26T04:08:31.788Z,18.50
2018-05-26T04:10:35.308Z,18.03
2018-05-26T04:12:38.843Z,16.87
2018-05-26T04:14:42.323Z,16.57
2018-05-26T04:16:45.867Z,15.83
2018-05-26T04:18:49.392Z,14.20
2018-05-26T04:20:52.923Z,15.10
2018-05-26T04:22:56.422Z,13.03
2018-05-26T04:24:59.930Z,12.77
2018-05-26T04:27:03.459Z,12.90
2018-05-26T04:29:06.978Z,14.43
2018-05-26T04:31:10.478Z,14.47
2018-05-26T04:33:14.018Z,13.43
2018-05-26T04:35:17.591Z,14.50
2018-05-26T04:37:21.288Z,14.40
2018-05-26T04:39:24.785Z,14.10
2018-05-26T04:41:28.319Z,13.17
2018-05-26T04:43:31.829Z,14.07
2018-05-26T04:45:35.369Z,15.67
2018-05-26T04:47:38.889Z,13.13
2018-05-26T04:49:44.076Z,13.60
2018-05-26T04:51:47.640Z,14.83
2018-05-26T04:53:51.114Z,13.93
2018-05-26T04:55:54.644Z,14.63
2018-05-26T04:57:58.159Z,14.53
2018-05-26T05:00:01.698Z,11.93
2018-05-26T05:02:05.183Z,12.83
2018-05-26T05:04:08.752Z,13.83
2018-05-26T05:06:12.274Z,11.43
2018-05-26T05:08:15.786Z,13.93
2018-05-26T05:10:19.306Z,13.23
2018-05-26T05:12:22.874Z,13.37
2018-05-26T05:14:26.398Z,12.80
2018-05-26T05:16:29.905Z,13.33
2018-05-26T05:18:33.440Z,12.87
2018-05-26T05:20:36.923Z,12.67
2018-05-26T05:22:40.496Z,12.80
2018-05-26T05:24:43.975Z,13.10
2018-05-26T05:26:47.547Z,11.60
2018-05-26T05:28:51.218Z,12.97
2018-05-26T05:30:54.770Z,13.30
2018-05-26T05:32:58.305Z,12.27
2018-05-26T05:35:01.827Z,12.97
2018-05-26T05:37:05.341Z,12.90
2018-05-26T05:39:08.852Z,13.40
2018-05-26T05:41:12.405Z,13.53
2018-05-26T05:43:15.956Z,12.90
2018-05-26T05:45:19.437Z,12.90
2018-05-26T05:47:22.967Z,11.77
2018-05-26T05:49:26.477Z,11.63
2018-05-26T05:51:30.003Z,11.00
2018-05-26T05:53:33.581Z,10.60
2018-05-26T05:55:37.121Z,10.37
2018-05-26T05:57:40.630Z,11.10
2018-05-26T05:59:44.188Z,11.43
2018-05-26T06:01:47.684Z,10.53
2018-05-26T06:03:51.207Z,9.13
2018-05-26T06:05:54.765Z,10.60
2018-05-26T06:07:58.485Z,10.23
